Terminal Aerodrome Forecast
Issued by NWS

Home | Current Version | Previous Version | Text Only | Print | Product List | Glossary On
Versions: 1 2 3 4 5 6 7 8 9 10 11 12 13 14 15 16 17 18 19 20 21 22 23 24 25 26 27 28 29 30 31 32
000
FTUS44 KHGX 270601 AAA
TAFCXO
TAF AMD
KCXO 270601Z 2706/2806 13005KT P6SM VCSH BKN017 OVC024
      TEMPO 2706/2709 BKN009
     FM270900 15006KT 5SM BR VCSH OVC015
     FM271500 21004KT 5SM -SHRA BR SCT007 OVC010
      TEMPO 2716/2720 2SM -TSRA BR BKN007CB
     FM272000 32008KT P6SM BKN015
     FM280000 34012G20KT P6SM BKN012=

USA.gov is the U.S. government's official web portal to all federal, state and local government web resources and services.